Pas de pilote en ligne...

Compagnie Fsx-France ! Un nouveau look pour votre VA, par : Julien & Co

 METAR ET TAF INFORMATION
METAR FOR LFRG :
LFRG 210430Z AUTO 32004KT 290V360 5000 BR NSC 13/13 Q1015

 AÉROPORT DE AÉROPORT

 INFORMATIONS DE PISTE
Piste 12 Longueur de la piste 2550 m = 8366 ft Largeur de la piste 45 m = 148 ft
Élévation de la piste 472 ft Seuil de la piste déplacés 1476 ft Runway heading 117
Piste 30 Longueur de la piste 2550 m = 8366 ft Largeur de la piste 45 m = 148 ft
Élévation de la piste 466 ft Seuil de la piste déplacés 1378 ft Runway heading 297
 AÉROPORT FRÉQUENCES
Type APP Nom DEAUVILLE Féquence 120.35 MHZ
Type ATIS Nom ATIS Féquence 136.15 MHZ
Type INFO Nom DEAUVILLE Féquence 119.825 MHZ
Type TWR Nom DEAUVILLE Féquence 118.3 MHZ

 AIDES A LA NAVIGATION
Type VOR Nom Deauville Féquence 110200 KHZ